Time;durP1;ratioP1;P1;durP2;ratioP2;P2;SDS_P1;SDS_P2;PMS_P1;PMS_P2;Temp;Humidity;BMP_temperature;BMP_pressure;BME280_temperature;BME280_humidity;BME280_pressure;Samples;Min_cycle;Max_cycle;Signal;HPM_P1;HPM_P2
2023/01/25 00:02:02;;;;;;;40.15;25.05;;;3.10;1.00;;;;;;5023422;28;20029;-57
2023/01/25 00:04:28;;;;;;;34.45;25.15;;;3.00;1.00;;;;;;5022932;28;20030;-61
2023/01/25 00:06:54;;;;;;;37.30;26.30;;;3.00;1.00;;;;;;5025563;28;20044;-62
2023/01/25 00:09:21;;;;;;;38.15;27.02;;;3.10;1.00;;;;;;5025166;28;20030;-62
2023/01/25 00:11:46;;;;;;;37.85;26.10;;;3.20;1.00;;;;;;5023713;28;20143;-61
2023/01/25 00:14:13;;;;;;;40.40;27.35;;;2.90;1.00;;;;;;5028102;28;20045;-59
2023/01/25 00:16:39;;;;;;;40.85;26.98;;;2.90;13.00;;;;;;5030217;28;20113;-61
2023/01/25 00:19:06;;;;;;;41.08;28.70;;;3.10;8.90;;;;;;5022023;28;20546;-61
2023/01/25 00:21:33;;;;;;;40.85;27.83;;;3.00;16.70;;;;;;5019804;28;20049;-57
2023/01/25 00:23:58;;;;;;;38.30;27.00;;;3.00;14.20;;;;;;5019441;28;20044;-61
2023/01/25 00:26:24;;;;;;;39.03;28.42;;;3.10;4.70;;;;;;5022689;28;20037;-58
2023/01/25 00:28:54;;;;;;;41.85;27.17;;;3.00;1.00;;;;;;5025356;28;20814;-62
2023/01/25 00:31:46;;;;;;;40.22;26.25;;;2.90;2.10;;;;;;5026563;28;20044;-57
2023/01/25 00:34:24;;;;;;;37.42;26.88;;;2.90;14.00;;;;;;5004648;28;20044;-61
2023/01/25 00:36:56;;;;;;;34.08;24.55;;;3.10;1.00;;;;;;5019396;28;20052;-57
2023/01/25 00:39:24;;;;;;;37.20;25.20;;;3.10;1.00;;;;;;5016216;28;20053;-61
2023/01/25 00:41:49;;;;;;;39.63;25.30;;;3.00;1.00;;;;;;5024803;28;20156;-61
2023/01/25 00:44:15;;;;;;;38.17;26.75;;;3.00;1.00;;;;;;5018666;28;20176;-60
2023/01/25 00:46:41;;;;;;;38.40;25.30;;;2.90;1.00;;;;;;5025263;28;20180;-60
2023/01/25 00:49:15;;;;;;;40.40;26.40;;;2.90;1.00;;;;;;5018436;28;20053;-61
2023/01/25 00:51:41;;;;;;;43.78;27.17;;;2.70;11.40;;;;;;5023939;28;20060;-61
2023/01/25 00:54:06;;;;;;;43.83;29.00;;;3.00;6.70;;;;;;5018511;28;20492;-61
2023/01/25 00:56:32;;;;;;;53.25;32.67;;;2.80;11.70;;;;;;5019134;28;20045;-60
2023/01/25 00:58:57;;;;;;;53.00;31.60;;;2.90;10.20;;;;;;5026753;28;20037;-61
2023/01/25 01:01:23;;;;;;;49.60;32.15;;;2.90;5.20;;;;;;5031416;28;20038;-62
2023/01/25 01:03:50;;;;;;;52.67;34.58;;;2.80;3.90;;;;;;5017384;28;20072;-58
2023/01/25 01:06:16;;;;;;;55.10;34.90;;;2.60;1.00;;;;;;5023369;28;20053;-59
2023/01/25 01:08:41;;;;;;;55.90;35.20;;;2.50;19.10;;;;;;5018724;28;20038;-60
2023/01/25 01:11:09;;;;;;;50.92;32.60;;;2.70;22.80;;;;;;5027855;28;20112;-61
2023/01/25 01:13:36;;;;;;;52.45;33.47;;;2.80;18.10;;;;;;5021404;28;20042;-55
2023/01/25 01:16:03;;;;;;;51.30;33.03;;;2.80;5.70;;;;;;5027475;28;20029;-54
2023/01/25 01:18:37;;;;;;;54.67;34.92;;;3.00;1.00;;;;;;5019292;28;20075;-55
2023/01/25 01:21:03;;;;;;;52.20;33.38;;;2.80;1.00;;;;;;5021212;28;20083;-62
2023/01/25 01:23:29;;;;;;;51.10;33.92;;;2.70;24.40;;;;;;5018477;28;20061;-61
2023/01/25 01:25:55;;;;;;;56.45;34.28;;;2.70;37.10;;;;;;5026649;28;20037;-62
2023/01/25 01:28:20;;;;;;;49.20;31.90;;;2.70;16.70;;;;;;5020672;28;20029;-61
2023/01/25 01:30:46;;;;;;;49.78;31.98;;;2.70;25.30;;;;;;5022832;28;20095;-61
2023/01/25 01:33:11;;;;;;;51.42;32.20;;;2.80;13.40;;;;;;5023139;28;20053;-57
2023/01/25 01:35:37;;;;;;;54.25;34.70;;;2.70;21.40;;;;;;5026366;28;20076;-51
2023/01/25 01:38:02;;;;;;;51.00;33.47;;;2.70;33.60;;;;;;5024155;28;20038;-53
2023/01/25 01:40:28;;;;;;;48.92;32.63;;;2.60;32.00;;;;;;5025701;28;20103;-50
2023/01/25 01:43:02;;;;;;;50.40;33.40;;;2.60;38.00;;;;;;5017014;28;20563;-54
2023/01/25 01:45:43;;;;;;;56.08;35.22;;;2.60;25.80;;;;;;5025155;28;20558;-50
2023/01/25 01:48:42;;;;;;;53.70;33.97;;;2.60;19.90;;;;;;5019701;28;20148;-51
2023/01/25 01:51:43;;;;;;;54.10;34.45;;;2.60;31.20;;;;;;5022555;28;20091;-50
2023/01/25 01:54:15;;;;;;;55.53;34.15;;;2.70;30.00;;;;;;4957663;28;20713;-54
2023/01/25 01:56:51;;;;;;;40.47;24.50;;;2.70;14.20;;;;;;5022597;28;20504;-52
2023/01/25 01:59:17;;;;;;;54.67;35.70;;;2.70;39.90;;;;;;5024096;28;20042;-50
2023/01/25 02:01:43;;;;;;;47.78;30.40;;;2.60;27.00;;;;;;5024333;28;20033;-53
2023/01/25 02:04:10;;;;;;;44.08;27.98;;;2.30;16.90;;;;;;5025211;28;20111;-53
2023/01/25 02:06:51;;;;;;;40.42;27.70;;;2.30;41.50;;;;;;5024451;28;20029;-51
2023/01/25 02:09:24;;;;;;;48.50;31.60;;;2.50;27.40;;;;;;5022640;28;20034;-52
2023/01/25 02:11:51;;;;;;;48.33;30.95;;;2.50;55.70;;;;;;5023097;28;20053;-53
2023/01/25 02:14:18;;;;;;;50.55;32.65;;;2.60;18.30;;;;;;5025593;28;20034;-53
2023/01/25 02:16:44;;;;;;;43.83;30.00;;;2.50;28.30;;;;;;5021618;28;20091;-51
2023/01/25 02:19:17;;;;;;;52.58;32.95;;;2.60;41.30;;;;;;5021709;28;20041;-51
2023/01/25 02:21:46;;;;;;;51.22;32.90;;;2.50;30.50;;;;;;5025003;28;20136;-51
2023/01/25 02:24:22;;;;;;;52.65;32.22;;;2.50;36.90;;;;;;5019124;28;20613;-54
2023/01/25 02:26:48;;;;;;;50.80;31.42;;;2.50;33.20;;;;;;5030534;28;20103;-52
2023/01/25 02:29:15;;;;;;;46.80;30.35;;;2.30;38.00;;;;;;5022354;28;20037;-53
2023/01/25 02:31:44;;;;;;;49.70;31.63;;;2.10;23.40;;;;;;5017049;28;20049;-51
2023/01/25 02:34:10;;;;;;;46.53;30.17;;;2.10;47.30;;;;;;5023807;28;20033;-51
2023/01/25 02:36:35;;;;;;;52.88;31.60;;;2.00;55.30;;;;;;5025754;28;20484;-51
2023/01/25 02:39:06;;;;;;;50.70;31.92;;;2.30;91.40;;;;;;5021735;28;20132;-51
2023/01/25 02:41:35;;;;;;;50.50;33.08;;;2.40;66.90;;;;;;5024635;28;20457;-50
2023/01/25 02:44:07;;;;;;;52.03;33.50;;;2.40;75.30;;;;;;5025939;28;20037;-49
2023/01/25 02:46:35;;;;;;;51.47;31.07;;;2.30;46.10;;;;;;5027559;28;20112;-51
2023/01/25 02:49:01;;;;;;;50.53;31.75;;;2.10;53.60;;;;;;5021156;28;20326;-48
2023/01/25 02:51:29;;;;;;;48.03;30.27;;;2.10;51.50;;;;;;5017845;28;20056;-51
2023/01/25 02:53:55;;;;;;;47.33;30.35;;;1.80;38.70;;;;;;5026594;28;20039;-50
2023/01/25 02:56:21;;;;;;;45.42;31.48;;;1.50;85.80;;;;;;5025422;28;20494;-51
2023/01/25 02:58:47;;;;;;;53.05;33.33;;;1.80;94.20;;;;;;5022150;28;20105;-52
2023/01/25 03:01:14;;;;;;;48.75;31.52;;;1.90;77.20;;;;;;5029899;28;20440;-53
2023/01/25 03:03:40;;;;;;;46.22;31.23;;;1.70;78.60;;;;;;5027584;28;20041;-51
2023/01/25 03:06:06;;;;;;;48.80;32.38;;;2.10;94.20;;;;;;5023171;28;20065;-51
2023/01/25 03:08:33;;;;;;;49.30;31.92;;;2.00;66.50;;;;;;5020329;28;20099;-51
2023/01/25 03:11:00;;;;;;;49.60;31.50;;;2.10;61.30;;;;;;5028796;28;20037;-50
2023/01/25 03:13:26;;;;;;;47.88;31.35;;;2.00;46.40;;;;;;5029248;28;20115;-50
2023/01/25 03:15:57;;;;;;;45.47;29.85;;;2.00;43.10;;;;;;5027605;28;20061;-49
2023/01/25 03:18:22;;;;;;;48.00;31.38;;;1.60;70.00;;;;;;5022235;28;20512;-58
2023/01/25 03:20:48;;;;;;;45.35;29.73;;;1.60;93.40;;;;;;5028797;28;20053;-57
2023/01/25 03:23:13;;;;;;;48.72;30.30;;;1.40;93.20;;;;;;5026814;28;20488;-59
2023/01/25 03:25:39;;;;;;;50.70;31.23;;;1.50;93.90;;;;;;5021668;28;20136;-60
2023/01/25 03:28:04;;;;;;;49.47;30.02;;;1.70;98.30;;;;;;5018476;28;20118;-61
2023/01/25 03:30:30;;;;;;;47.97;30.38;;;1.60;81.70;;;;;;5024179;28;20270;-62
2023/01/25 03:32:55;;;;;;;49.30;31.13;;;1.50;76.80;;;;;;5019001;28;20034;-59
2023/01/25 03:35:21;;;;;;;52.67;32.60;;;1.80;98.40;;;;;;5024945;28;20045;-61
2023/01/25 03:37:46;;;;;;;52.05;30.55;;;2.00;99.90;;;;;;5026801;28;20047;-62
2023/01/25 03:40:12;;;;;;;54.10;32.63;;;2.00;73.60;;;;;;5023675;28;20033;-61
2023/01/25 03:42:38;;;;;;;50.13;31.65;;;1.80;67.00;;;;;;5027258;28;20116;-60
2023/01/25 03:45:04;;;;;;;51.63;32.85;;;1.90;82.10;;;;;;5026446;28;20045;-62
2023/01/25 03:47:30;;;;;;;46.25;29.50;;;2.10;77.10;;;;;;5023232;28;20572;-60
2023/01/25 03:49:55;;;;;;;53.35;31.35;;;1.70;63.20;;;;;;5027284;28;20123;-61
2023/01/25 03:52:23;;;;;;;49.90;32.42;;;2.00;77.00;;;;;;5027957;28;20040;-60
2023/01/25 03:54:48;;;;;;;48.88;31.30;;;2.30;87.00;;;;;;5024951;28;20552;-59
2023/01/25 03:57:14;;;;;;;51.55;30.20;;;2.30;28.80;;;;;;5025515;28;20171;-62
2023/01/25 03:59:39;;;;;;;50.60;31.58;;;2.30;43.90;;;;;;5028684;28;20480;-61
2023/01/25 04:02:05;;;;;;;52.03;32.50;;;2.30;46.90;;;;;;5030910;28;20783;-61
2023/01/25 04:04:31;;;;;;;53.03;31.58;;;2.30;59.70;;;;;;5025742;28;20493;-60
2023/01/25 04:06:56;;;;;;;53.33;32.72;;;2.50;52.20;;;;;;5025973;28;20420;-52
2023/01/25 04:09:22;;;;;;;44.80;29.05;;;2.40;30.40;;;;;;5025145;28;20477;-52
2023/01/25 04:11:50;;;;;;;55.80;32.15;;;2.00;32.20;;;;;;5026926;28;20042;-51
2023/01/25 04:14:16;;;;;;;48.70;31.20;;;2.00;68.70;;;;;;5024132;28;20034;-50
2023/01/25 04:16:42;;;;;;;48.90;29.98;;;2.20;78.90;;;;;;5030034;28;20056;-54
2023/01/25 04:19:07;;;;;;;54.08;32.42;;;2.20;89.40;;;;;;5023739;28;20065;-52
2023/01/25 04:21:33;;;;;;;49.95;31.77;;;2.20;86.10;;;;;;5026820;28;20696;-52
2023/01/25 04:23:58;;;;;;;53.10;31.13;;;2.30;85.10;;;;;;5024567;28;20033;-53
2023/01/25 04:26:24;;;;;;;50.05;32.30;;;2.30;58.10;;;;;;5025458;28;20402;-51
2023/01/25 04:28:50;;;;;;;46.67;30.23;;;2.30;68.40;;;;;;5022316;28;20054;-50
2023/01/25 04:31:15;;;;;;;46.70;29.90;;;2.20;61.60;;;;;;5027925;28;20037;-51
2023/01/25 04:33:41;;;;;;;47.78;31.08;;;2.10;58.10;;;;;;5026627;28;20557;-51
2023/01/25 04:36:07;;;;;;;47.80;30.67;;;2.00;42.60;;;;;;5025415;28;20034;-53
2023/01/25 04:38:32;;;;;;;47.13;29.40;;;2.30;56.50;;;;;;5024571;28;20033;-53
2023/01/25 04:40:58;;;;;;;46.60;30.73;;;2.30;40.90;;;;;;5027197;28;20579;-48
2023/01/25 04:43:25;;;;;;;48.47;30.95;;;2.50;41.90;;;;;;5026115;28;20045;-51
2023/01/25 04:45:50;;;;;;;51.30;30.70;;;2.70;23.80;;;;;;5025471;28;20037;-50
2023/01/25 04:48:16;;;;;;;49.15;31.08;;;2.50;49.20;;;;;;5025747;28;20578;-53
2023/01/25 04:50:42;;;;;;;44.95;30.15;;;2.50;45.20;;;;;;5026905;28;20459;-54
2023/01/25 04:53:09;;;;;;;41.15;26.40;;;2.70;31.90;;;;;;5024876;28;20038;-53
2023/01/25 04:55:35;;;;;;;45.80;30.02;;;2.20;1.00;;;;;;5016299;28;20543;-51
2023/01/25 04:58:02;;;;;;;46.65;29.42;;;2.20;35.90;;;;;;5024352;28;20047;-48
2023/01/25 05:00:28;;;;;;;44.50;29.38;;;2.30;28.20;;;;;;5029117;28;20109;-52
2023/01/25 05:02:54;;;;;;;48.60;29.15;;;2.20;41.80;;;;;;5028415;28;20065;-50
2023/01/25 05:05:20;;;;;;;44.33;28.67;;;2.10;53.60;;;;;;5029674;28;20087;-51
2023/01/25 05:07:45;;;;;;;48.67;30.55;;;1.80;66.10;;;;;;5023733;28;20064;-53
2023/01/25 05:10:11;;;;;;;42.55;28.50;;;1.90;92.60;;;;;;5025561;28;20048;-52
2023/01/25 05:12:37;;;;;;;43.90;28.15;;;1.80;77.10;;;;;;5026894;28;20033;-53
2023/01/25 05:15:03;;;;;;;42.50;27.40;;;2.00;97.30;;;;;;5023584;28;20030;-53
2023/01/25 05:17:29;;;;;;;41.22;27.15;;;2.40;99.90;;;;;;5026387;28;20426;-50
2023/01/25 05:19:55;;;;;;;39.03;25.35;;;2.30;65.40;;;;;;5020941;28;20068;-52
2023/01/25 05:22:21;;;;;;;42.25;27.67;;;2.20;25.10;;;;;;5025959;28;20030;-50
2023/01/25 05:24:47;;;;;;;37.92;25.52;;;2.20;41.70;;;;;;5019323;28;20130;-49
2023/01/25 05:27:16;;;;;;;38.65;24.33;;;2.40;40.70;;;;;;5018640;28;20033;-51
2023/01/25 05:29:43;;;;;;;41.50;25.33;;;1.90;26.80;;;;;;5022999;28;20040;-52
2023/01/25 05:32:17;;;;;;;43.47;27.58;;;1.90;82.50;;;;;;5022184;28;20554;-52
2023/01/25 05:34:44;;;;;;;38.58;25.17;;;2.10;85.00;;;;;;5026193;28;20043;-51
2023/01/25 05:37:14;;;;;;;41.53;27.13;;;2.20;66.00;;;;;;5025656;28;20603;-51
2023/01/25 05:39:40;;;;;;;40.25;26.58;;;2.30;81.30;;;;;;5025314;28;20041;-52
2023/01/25 05:42:17;;;;;;;42.50;27.23;;;2.50;39.00;;;;;;5025626;28;20044;-52
2023/01/25 05:44:43;;;;;;;41.10;27.98;;;2.30;48.10;;;;;;5025051;28;20612;-52
2023/01/25 05:47:13;;;;;;;39.70;27.48;;;2.20;75.90;;;;;;5014623;28;20040;-51
2023/01/25 05:49:38;;;;;;;38.13;24.10;;;2.20;70.60;;;;;;5022783;28;20502;-51
2023/01/25 05:52:04;;;;;;;36.65;25.27;;;2.20;53.50;;;;;;5023259;28;20034;-53
2023/01/25 05:54:29;;;;;;;36.42;26.00;;;2.20;63.40;;;;;;5018335;28;20491;-52
2023/01/25 05:56:55;;;;;;;37.40;25.45;;;2.40;76.60;;;;;;5020911;28;20053;-54
2023/01/25 05:59:21;;;;;;;39.70;26.00;;;2.30;60.90;;;;;;5020540;28;20041;-54
2023/01/25 06:01:46;;;;;;;39.20;26.60;;;2.20;63.00;;;;;;5027735;28;20497;-50
2023/01/25 06:04:14;;;;;;;39.67;26.92;;;2.10;76.80;;;;;;5024021;28;20472;-53
2023/01/25 06:06:39;;;;;;;37.95;25.27;;;2.10;66.90;;;;;;5017939;28;20288;-51
2023/01/25 06:09:05;;;;;;;40.58;26.65;;;2.00;71.70;;;;;;5023418;28;20038;-51
2023/01/25 06:11:30;;;;;;;36.97;25.33;;;2.20;76.20;;;;;;5023175;28;20045;-49
2023/01/25 06:13:56;;;;;;;41.40;27.38;;;1.90;61.30;;;;;;5019809;28;20742;-53
2023/01/25 06:16:22;;;;;;;42.15;27.33;;;2.30;94.10;;;;;;5027562;28;20061;-53
2023/01/25 06:18:48;;;;;;;40.35;27.70;;;2.60;59.30;;;;;;5024074;28;20044;-52
2023/01/25 06:21:13;;;;;;;40.17;28.23;;;2.40;30.50;;;;;;5019250;28;20030;-51
2023/01/25 06:23:39;;;;;;;42.78;27.98;;;2.00;45.30;;;;;;5014487;28;20567;-53
2023/01/25 06:26:07;;;;;;;46.13;28.45;;;2.00;83.40;;;;;;5017634;28;20404;-49
2023/01/25 06:28:34;;;;;;;42.92;29.23;;;2.30;79.90;;;;;;5022369;28;20030;-51
2023/01/25 06:31:18;;;;;;;43.38;29.38;;;2.30;59.80;;;;;;5021900;28;20049;-52
2023/01/25 06:33:48;;;;;;;41.25;27.30;;;2.20;62.80;;;;;;5023213;28;20469;-54
2023/01/25 06:36:15;;;;;;;44.97;28.83;;;1.90;43.00;;;;;;5025696;28;20040;-52
2023/01/25 06:38:41;;;;;;;48.38;29.45;;;1.80;47.60;;;;;;5025673;28;20482;-51
2023/01/25 06:41:10;;;;;;;49.05;30.65;;;2.10;91.50;;;;;;5024224;28;20030;-52
2023/01/25 06:43:36;;;;;;;50.78;30.10;;;2.00;91.30;;;;;;5025873;28;20034;-53
2023/01/25 06:46:07;;;;;;;48.97;31.33;;;1.90;91.00;;;;;;5026890;28;20128;-52
2023/01/25 06:48:33;;;;;;;47.13;31.45;;;1.80;93.00;;;;;;5023308;28;20033;-50
2023/01/25 06:51:04;;;;;;;51.45;32.67;;;1.70;79.00;;;;;;5024043;28;20081;-50
2023/01/25 06:53:32;;;;;;;52.10;34.08;;;1.70;96.00;;;;;;5023625;28;20045;-51
2023/01/25 06:56:00;;;;;;;52.30;33.03;;;1.80;94.90;;;;;;5019793;28;20033;-53
2023/01/25 06:58:27;;;;;;;54.35;33.63;;;1.80;92.20;;;;;;5018413;28;20049;-53
2023/01/25 07:00:53;;;;;;;55.40;33.50;;;1.90;96.20;;;;;;5025396;28;20504;-51
2023/01/25 07:03:19;;;;;;;50.72;33.42;;;1.90;91.00;;;;;;5020967;28;20040;-52
2023/01/25 07:05:45;;;;;;;51.13;31.80;;;2.00;94.20;;;;;;5022390;28;20148;-53
2023/01/25 07:08:10;;;;;;;48.78;31.40;;;1.70;79.20;;;;;;5021678;28;20044;-52
2023/01/25 07:10:36;;;;;;;51.72;32.28;;;1.50;89.30;;;;;;5024828;28;20041;-51
2023/01/25 07:13:02;;;;;;;49.90;31.27;;;1.50;95.00;;;;;;5024196;28;20065;-51
2023/01/25 07:15:27;;;;;;;46.97;29.60;;;1.70;99.50;;;;;;5023079;28;20037;-48
2023/01/25 07:17:53;;;;;;;46.38;30.35;;;1.50;97.40;;;;;;5020295;28;20087;-50
2023/01/25 07:20:18;;;;;;;45.97;30.20;;;1.80;94.00;;;;;;5019863;28;20049;-52
2023/01/25 07:22:44;;;;;;;45.33;29.75;;;1.80;87.60;;;;;;5020433;28;20460;-51
2023/01/25 07:25:10;;;;;;;43.58;28.92;;;1.70;75.60;;;;;;5014879;28;20531;-51
2023/01/25 07:27:35;;;;;;;50.22;31.63;;;1.40;72.00;;;;;;5020875;28;20447;-52
2023/01/25 07:30:02;;;;;;;46.65;30.80;;;1.30;99.90;;;;;;5023163;28;20036;-49
2023/01/25 07:32:27;;;;;;;50.42;32.22;;;1.20;99.90;;;;;;5023976;28;20085;-52
2023/01/25 07:34:53;;;;;;;48.65;31.35;;;1.50;99.90;;;;;;5027939;28;20068;-52
2023/01/25 07:37:19;;;;;;;48.53;30.38;;;1.50;99.90;;;;;;5029451;28;20140;-47
2023/01/25 07:39:48;;;;;;;43.40;28.80;;;1.10;99.90;;;;;;5023526;28;20168;-50
2023/01/25 07:42:14;;;;;;;45.50;29.17;;;1.10;99.90;;;;;;5019773;28;20100;-52
2023/01/25 07:44:40;;;;;;;45.70;27.95;;;1.10;99.90;;;;;;5025403;28;20465;-48
2023/01/25 07:47:05;;;;;;;45.75;29.40;;;1.00;99.90;;;;;;5020261;28;20033;-50
2023/01/25 07:49:31;;;;;;;51.25;31.75;;;0.90;99.90;;;;;;5020444;28;20037;-50
2023/01/25 07:51:56;;;;;;;48.55;30.30;;;1.10;99.90;;;;;;5027781;28;20041;-53
2023/01/25 07:54:22;;;;;;;47.35;31.42;;;1.10;99.90;;;;;;5025004;28;20038;-51
2023/01/25 07:56:48;;;;;;;51.28;32.70;;;1.10;99.90;;;;;;5027353;28;20041;-53
2023/01/25 07:59:15;;;;;;;55.22;33.70;;;1.50;99.90;;;;;;5025344;28;20533;-51
2023/01/25 08:01:40;;;;;;;56.70;33.35;;;1.50;99.90;;;;;;5030089;28;20087;-48
2023/01/25 08:04:06;;;;;;;50.72;31.65;;;1.70;99.90;;;;;;5021436;28;20041;-51
2023/01/25 08:06:37;;;;;;;51.58;32.05;;;1.40;99.90;;;;;;5027421;28;20041;-51
2023/01/25 08:09:06;;;;;;;51.78;32.75;;;1.30;99.90;;;;;;5022735;28;20038;-53
2023/01/25 08:11:32;;;;;;;49.33;30.80;;;1.50;99.90;;;;;;5025969;28;20041;-52
2023/01/25 08:14:00;;;;;;;52.38;31.83;;;1.50;98.50;;;;;;5026555;28;20111;-50
2023/01/25 08:16:27;;;;;;;52.33;33.83;;;1.30;99.90;;;;;;5027282;28;20041;-55
2023/01/25 08:18:55;;;;;;;53.40;33.78;;;1.30;99.90;;;;;;5025148;28;20052;-53
2023/01/25 08:21:23;;;;;;;51.80;32.30;;;1.40;99.90;;;;;;5027635;28;20145;-55
2023/01/25 08:23:50;;;;;;;49.70;30.83;;;1.60;99.90;;;;;;5019215;28;20165;-54
2023/01/25 08:26:16;;;;;;;49.88;31.42;;;1.60;99.90;;;;;;5022307;28;20697;-53
2023/01/25 08:28:42;;;;;;;50.78;32.42;;;1.40;98.90;;;;;;5016068;28;20436;-55
2023/01/25 08:31:11;;;;;;;52.78;31.60;;;1.20;99.90;;;;;;5029226;28;20034;-55
2023/01/25 08:33:38;;;;;;;50.65;32.00;;;1.10;99.90;;;;;;5020852;28;20630;-53
2023/01/25 08:36:04;;;;;;;51.78;32.22;;;0.90;99.90;;;;;;5021952;28;20041;-54
2023/01/25 08:38:31;;;;;;;53.92;32.03;;;0.90;99.90;;;;;;5020344;28;20030;-53
2023/01/25 08:41:04;;;;;;;49.85;30.27;;;0.80;99.90;;;;;;5025410;28;20408;-54
2023/01/25 08:43:30;;;;;;;55.25;33.65;;;0.80;99.90;;;;;;5018577;28;20448;-54
2023/01/25 08:45:56;;;;;;;49.08;31.35;;;0.80;99.90;;;;;;5027240;28;20030;-55
2023/01/25 08:48:22;;;;;;;49.20;30.33;;;0.80;99.90;;;;;;5019786;28;20105;-53
2023/01/25 08:50:48;;;;;;;53.78;33.05;;;0.90;99.90;;;;;;5025312;28;20117;-55
2023/01/25 08:53:13;;;;;;;49.47;30.33;;;1.20;99.90;;;;;;5027168;28;20029;-54
2023/01/25 08:55:41;;;;;;;51.88;31.38;;;1.10;99.90;;;;;;5022473;28;20411;-55
2023/01/25 08:58:09;;;;;;;54.33;31.48;;;1.30;99.90;;;;;;5024624;28;20729;-53
2023/01/25 09:00:39;;;;;;;53.08;32.70;;;1.00;99.90;;;;;;5029049;28;20037;-54
2023/01/25 09:03:06;;;;;;;57.20;33.58;;;0.80;99.90;;;;;;5022934;28;20773;-54
2023/01/25 09:05:36;;;;;;;54.53;33.38;;;1.00;99.90;;;;;;5040875;28;20037;-52
2023/01/25 09:08:03;;;;;;;63.33;37.22;;;1.10;99.90;;;;;;5017972;28;20033;-55
2023/01/25 09:10:29;;;;;;;56.03;33.58;;;1.20;99.90;;;;;;5026501;28;20495;-52
2023/01/25 09:12:55;;;;;;;54.25;33.38;;;1.20;99.90;;;;;;5023967;28;20034;-54
2023/01/25 09:15:21;;;;;;;54.90;33.60;;;1.10;99.90;;;;;;5027220;28;20464;-53
2023/01/25 09:17:53;;;;;;;56.08;32.85;;;1.20;99.90;;;;;;5024981;28;20812;-53
2023/01/25 09:20:19;;;;;;;52.03;31.95;;;0.90;99.90;;;;;;5017329;28;20365;-53
2023/01/25 09:22:45;;;;;;;51.83;29.98;;;0.70;99.90;;;;;;5023949;28;20492;-54
2023/01/25 09:25:11;;;;;;;54.88;32.53;;;0.70;99.90;;;;;;5020472;28;20034;-54
2023/01/25 09:27:37;;;;;;;54.30;31.80;;;0.90;99.90;;;;;;5020999;28;20042;-53
2023/01/25 09:30:04;;;;;;;51.67;31.00;;;1.30;99.90;;;;;;5024189;28;20032;-53
2023/01/25 09:32:30;;;;;;;53.15;31.63;;;1.30;99.90;;;;;;5027457;28;20371;-54
2023/01/25 09:34:55;;;;;;;51.70;30.15;;;1.50;99.90;;;;;;5025029;28;20128;-54
2023/01/25 09:37:21;;;;;;;53.83;31.35;;;1.20;99.90;;;;;;5029167;28;20338;-53
2023/01/25 09:39:46;;;;;;;51.42;31.33;;;1.30;99.90;;;;;;5023959;28;20132;-54
2023/01/25 09:42:47;;;;;;;54.88;33.08;;;1.30;99.90;;;;;;5022987;28;20029;-54
2023/01/25 09:45:25;;;;;;;54.92;32.17;;;1.60;99.90;;;;;;5018723;28;20476;-52
2023/01/25 09:47:58;;;;;;;55.90;31.90;;;1.60;99.90;;;;;;5027276;28;20099;-54
2023/01/25 09:50:47;;;;;;;50.67;30.25;;;1.60;99.90;;;;;;5024267;28;20037;-53
2023/01/25 09:53:35;;;;;;;49.28;30.55;;;1.40;99.90;;;;;;5018365;28;20064;-52
2023/01/25 09:56:12;;;;;;;50.50;31.67;;;1.40;99.90;;;;;;5021020;28;20033;-54
2023/01/25 09:58:52;;;;;;;55.80;33.80;;;1.00;99.90;;;;;;5019038;28;20120;-53
2023/01/25 10:01:36;;;;;;;52.50;33.28;;;1.20;99.90;;;;;;5022012;28;20617;-54
2023/01/25 10:04:24;;;;;;;54.95;33.85;;;1.20;99.90;;;;;;5024424;28;20037;-53
2023/01/25 10:06:52;;;;;;;55.05;33.65;;;1.60;99.90;;;;;;5023688;28;20060;-54
2023/01/25 10:09:46;;;;;;;54.08;33.08;;;1.50;99.90;;;;;;5023239;28;20485;-53
2023/01/25 10:12:20;;;;;;;53.38;32.42;;;1.70;99.90;;;;;;5021536;28;20041;-55
2023/01/25 10:14:46;;;;;;;56.10;34.22;;;1.50;99.90;;;;;;5028366;28;20966;-54
2023/01/25 10:17:26;;;;;;;55.05;33.00;;;1.70;99.90;;;;;;5025992;28;20506;-54
2023/01/25 10:20:14;;;;;;;55.80;32.25;;;1.50;99.90;;;;;;5020535;28;20040;-54
2023/01/25 10:22:51;;;;;;;55.47;34.38;;;1.50;99.90;;;;;;5024810;28;20453;-54
2023/01/25 10:25:33;;;;;;;58.47;33.83;;;1.60;99.90;;;;;;5024122;28;20040;-53
2023/01/25 10:28:13;;;;;;;57.17;33.30;;;1.50;99.90;;;;;;5018284;28;20034;-54
2023/01/25 10:30:48;;;;;;;59.22;35.75;;;1.40;99.90;;;;;;5021740;28;20034;-54
2023/01/25 10:33:17;;;;;;;57.83;33.92;;;1.30;99.90;;;;;;5024338;28;20088;-50
2023/01/25 10:35:45;;;;;;;59.35;35.25;;;1.20;99.90;;;;;;5022581;28;20037;-54
2023/01/25 10:38:28;;;;;;;66.40;37.67;;;1.10;99.90;;;;;;5024399;28;20258;-52
2023/01/25 10:41:04;;;;;;;61.85;36.70;;;1.40;99.90;;;;;;5023291;28;20129;-54
2023/01/25 10:43:29;;;;;;;60.90;36.33;;;1.50;99.90;;;;;;5024406;28;20053;-53
2023/01/25 10:45:55;;;;;;;67.85;38.65;;;1.30;99.90;;;;;;5025766;28;20065;-53
2023/01/25 10:48:27;;;;;;;70.78;38.60;;;1.00;99.90;;;;;;5019705;28;20122;-54
2023/01/25 10:50:54;;;;;;;60.50;35.50;;;1.30;99.90;;;;;;5020716;28;20495;-52
2023/01/25 10:53:35;;;;;;;57.50;33.95;;;1.40;99.90;;;;;;5023804;28;20026;-54
2023/01/25 10:56:09;;;;;;;57.33;33.78;;;1.60;99.90;;;;;;5025900;28;20033;-53
2023/01/25 10:58:35;;;;;;;57.17;32.88;;;1.50;99.90;;;;;;5024140;28;20033;-52
2023/01/25 11:01:03;;;;;;;60.25;35.50;;;1.40;99.90;;;;;;5023550;28;20033;-52
2023/01/25 11:03:40;;;;;;;56.97;31.23;;;1.60;99.90;;;;;;5025003;28;20519;-51
2023/01/25 11:06:07;;;;;;;61.10;32.45;;;1.00;99.90;;;;;;5025884;28;20670;-53
2023/01/25 11:08:40;;;;;;;63.55;36.33;;;1.00;99.90;;;;;;5027567;28;20029;-54
2023/01/25 11:11:31;;;;;;;65.00;36.65;;;0.80;99.90;;;;;;5027616;28;20034;-55
2023/01/25 11:13:57;;;;;;;66.43;38.13;;;0.80;99.90;;;;;;5028875;28;20451;-53
2023/01/25 11:16:31;;;;;;;67.50;39.58;;;1.20;99.90;;;;;;5030428;28;20029;-54
2023/01/25 11:18:59;;;;;;;68.80;38.60;;;1.00;99.90;;;;;;5026095;28;20042;-54
2023/01/25 11:21:26;;;;;;;63.53;36.80;;;1.20;99.90;;;;;;5024610;28;20125;-54
2023/01/25 11:24:16;;;;;;;58.55;33.72;;;1.00;99.90;;;;;;5028541;28;20096;-52
2023/01/25 11:26:42;;;;;;;56.58;33.03;;;1.00;99.90;;;;;;5028271;28;20040;-54
2023/01/25 11:29:20;;;;;;;57.33;32.88;;;1.10;99.90;;;;;;5027289;28;20030;-56
2023/01/25 11:31:54;;;;;;;64.95;35.95;;;1.20;99.90;;;;;;5029908;28;20187;-52
2023/01/25 11:34:27;;;;;;;59.92;32.25;;;1.20;99.90;;;;;;5024816;28;20067;-54
2023/01/25 11:37:18;;;;;;;60.85;32.90;;;1.40;99.90;;;;;;5029155;28;20117;-54
2023/01/25 11:40:02;;;;;;;62.08;34.80;;;1.50;99.90;;;;;;5029940;28;20037;-55
2023/01/25 11:42:42;;;;;;;61.15;34.38;;;1.70;99.90;;;;;;5027358;28;20493;-54
2023/01/25 11:45:30;;;;;;;66.05;36.60;;;1.80;99.90;;;;;;5026181;28;20632;-54
2023/01/25 11:48:21;;;;;;;65.30;35.38;;;1.90;99.90;;;;;;5027366;28;20120;-54
2023/01/25 11:50:51;;;;;;;63.03;37.60;;;2.00;99.90;;;;;;5026047;28;20038;-54
2023/01/25 11:53:33;;;;;;;61.58;36.22;;;2.00;93.70;;;;;;5027977;28;20033;-55
2023/01/25 11:56:14;;;;;;;62.42;35.67;;;1.90;97.70;;;;;;5025189;28;20052;-54
2023/01/25 11:59:05;;;;;;;63.47;37.00;;;1.90;99.90;;;;;;5026541;28;20026;-54
2023/01/25 12:01:51;;;;;;;63.10;36.65;;;1.60;84.30;;;;;;5019659;28;20030;-54
2023/01/25 12:04:32;;;;;;;64.57;34.60;;;1.60;99.90;;;;;;5026268;28;20072;-54
2023/01/25 12:07:04;;;;;;;62.90;35.40;;;1.60;99.90;;;;;;5029619;28;20030;-53
2023/01/25 12:10:15;;;;;;;61.78;34.28;;;1.70;99.90;;;;;;5027540;28;20053;-54
2023/01/25 12:12:52;;;;;;;63.78;36.00;;;1.80;99.90;;;;;;4965558;28;20045;-54
2023/01/25 12:15:37;;;;;;;65.13;35.80;;;1.80;99.90;;;;;;5017057;28;20481;-54
2023/01/25 12:18:31;;;;;;;66.68;38.22;;;1.70;99.90;;;;;;5024772;28;20045;-55
2023/01/25 12:21:31;;;;;;;64.45;35.17;;;1.70;99.90;;;;;;5026721;28;20029;-55
2023/01/25 12:24:15;;;;;;;66.63;38.30;;;1.60;97.60;;;;;;5020759;28;20512;-54
2023/01/25 12:27:16;;;;;;;67.88;37.53;;;1.70;99.90;;;;;;5024753;28;20112;-52
2023/01/25 12:29:54;;;;;;;69.90;38.00;;;2.00;93.30;;;;;;5001925;28;20435;-54
2023/01/25 12:32:29;;;;;;;79.70;42.95;;;2.10;99.90;;;;;;5024912;28;20037;-54
2023/01/25 12:35:31;;;;;;;70.25;40.30;;;1.90;93.40;;;;;;5020798;28;20750;-54
2023/01/25 12:38:09;;;;;;;67.28;36.05;;;2.00;98.80;;;;;;5025359;28;20607;-54
2023/01/25 12:40:55;;;;;;;68.07;37.05;;;1.50;99.90;;;;;;5027445;28;20036;-54
2023/01/25 12:43:31;;;;;;;62.47;36.15;;;1.60;99.90;;;;;;5026456;28;20510;-55
2023/01/25 12:45:59;;;;;;;63.83;35.38;;;1.40;99.90;;;;;;5029908;28;20543;-54
2023/01/25 12:48:40;;;;;;;68.50;38.25;;;1.40;99.90;;;;;;5024468;28;20033;-53
2023/01/25 12:51:07;;;;;;;70.05;36.63;;;1.70;99.90;;;;;;5025080;28;20121;-53
2023/01/25 12:53:37;;;;;;;67.50;38.00;;;1.90;99.90;;;;;;5028072;28;20049;-54